Time;durP1;ratioP1;P1;durP2;ratioP2;P2;SDS_P1;SDS_P2;PMS_P1;PMS_P2;Temp;Humidity;BMP_temperature;BMP_pressure;BME280_temperature;BME280_humidity;BME280_pressure;Samples;Min_cycle;Max_cycle;Signal;HPM_P1;HPM_P2
2024/03/21 00:02:14;;;;;;;31.60;17.77;;;;;;;9.04;100.00;93107.13;5109622;28;20032;-80
2024/03/21 00:04:40;;;;;;;28.52;17.88;;;;;;;9.01;100.00;93115.50;5096151;28;20089;-80
2024/03/21 00:07:05;;;;;;;30.27;16.92;;;;;;;8.94;100.00;93113.91;5095286;28;20020;-81
2024/03/21 00:09:31;;;;;;;27.65;16.77;;;;;;;8.91;100.00;93117.03;5095559;28;20063;-82
2024/03/21 00:11:57;;;;;;;32.60;18.55;;;;;;;8.89;100.00;93119.16;5095620;28;20058;-81
2024/03/21 00:14:24;;;;;;;28.27;18.40;;;;;;;8.88;100.00;93122.00;5095647;28;20036;-81
2024/03/21 00:16:49;;;;;;;32.33;17.95;;;;;;;8.87;100.00;93118.63;5094461;28;20038;-80
2024/03/21 00:19:15;;;;;;;29.20;18.23;;;;;;;8.85;100.00;93112.88;5093933;28;20478;-82
2024/03/21 00:21:41;;;;;;;32.08;18.85;;;;;;;8.87;100.00;93110.78;5094669;28;20032;-80
2024/03/21 00:24:07;;;;;;;32.92;18.50;;;;;;;8.90;100.00;93118.09;5094951;28;20405;-82
2024/03/21 00:26:32;;;;;;;33.17;19.30;;;;;;;8.90;100.00;93112.88;5094485;28;20048;-81
2024/03/21 00:28:58;;;;;;;30.00;18.92;;;;;;;8.90;100.00;93122.53;5095328;28;20060;-81
2024/03/21 00:31:23;;;;;;;31.92;17.77;;;;;;;8.89;100.00;93118.34;5095522;28;20024;-81
2024/03/21 00:33:49;;;;;;;31.15;17.90;;;;;;;8.89;100.00;93113.91;5095289;28;20484;-81
2024/03/21 00:36:16;;;;;;;30.80;17.98;;;;;;;8.88;100.00;93109.72;5094844;28;20028;-82
2024/03/21 00:38:42;;;;;;;29.27;18.38;;;;;;;8.87;100.00;93102.94;5094427;28;20035;-81
2024/03/21 00:41:08;;;;;;;28.55;17.48;;;;;;;8.85;100.00;93093.78;5100036;28;20512;-82
2024/03/21 00:43:34;;;;;;;30.23;17.80;;;;;;;8.86;100.00;93096.16;5114009;28;20043;-82
2024/03/21 00:46:00;;;;;;;28.52;17.42;;;;;;;8.83;100.00;93090.69;5114933;28;20042;-81
2024/03/21 00:48:26;;;;;;;29.60;17.38;;;;;;;8.82;100.00;93089.88;5115824;28;20126;-81
2024/03/21 00:50:51;;;;;;;30.92;17.42;;;;;;;8.77;100.00;93087.25;5115212;28;20039;-81
2024/03/21 00:53:17;;;;;;;29.10;17.52;;;;;;;8.75;100.00;93089.34;5113572;28;20034;-81
2024/03/21 00:55:42;;;;;;;29.95;17.40;;;;;;;8.73;100.00;93088.81;5114986;28;20039;-81
2024/03/21 00:58:08;;;;;;;30.10;17.50;;;;;;;8.68;100.00;93084.38;5115608;28;20031;-81
2024/03/21 01:00:35;;;;;;;32.78;17.58;;;;;;;8.67;100.00;93082.03;5114551;28;20027;-81
2024/03/21 01:03:05;;;;;;;29.33;17.33;;;;;;;8.62;100.00;93076.78;5114479;28;20062;-81
2024/03/21 01:05:32;;;;;;;33.63;18.23;;;;;;;8.62;100.00;93087.25;5114405;28;20066;-82
2024/03/21 01:07:57;;;;;;;28.13;17.30;;;;;;;8.57;100.00;93076.81;5114974;28;20031;-82
2024/03/21 01:10:23;;;;;;;29.25;16.92;;;;;;;8.52;100.00;93080.19;5114866;28;20044;-81
2024/03/21 01:12:48;;;;;;;30.77;16.92;;;;;;;8.50;100.00;93074.44;5114756;28;20500;-81
2024/03/21 01:15:17;;;;;;;31.13;17.48;;;;;;;8.45;100.00;93070.00;5113130;28;20031;-82
2024/03/21 01:17:43;;;;;;;30.70;17.73;;;;;;;8.41;100.00;93068.16;5114391;28;20404;-82
2024/03/21 01:20:09;;;;;;;31.40;18.10;;;;;;;8.36;100.00;93070.75;5114373;28;20058;-82
2024/03/21 01:22:34;;;;;;;31.02;17.80;;;;;;;8.31;100.00;93059.25;5112991;28;20027;-82
2024/03/21 01:25:00;;;;;;;30.60;17.35;;;;;;;8.29;100.00;93057.94;5112542;28;20412;-81
2024/03/21 01:27:26;;;;;;;31.60;18.95;;;;;;;8.28;100.00;93067.56;5112232;28;20476;-81
2024/03/21 01:29:51;;;;;;;28.85;17.50;;;;;;;8.25;100.00;93064.72;5114468;28;20118;-80
2024/03/21 01:32:17;;;;;;;35.33;18.33;;;;;;;8.22;100.00;93060.78;5113283;28;20046;-82
2024/03/21 01:34:43;;;;;;;28.98;17.88;;;;;;;8.20;100.00;93055.03;5114401;28;20028;-81
2024/03/21 01:37:08;;;;;;;29.65;18.02;;;;;;;8.15;100.00;93052.44;5114751;28;20039;-82
2024/03/21 01:39:35;;;;;;;33.83;18.42;;;;;;;8.17;100.00;93054.75;5113592;28;20032;-81
2024/03/21 01:42:00;;;;;;;31.52;18.13;;;;;;;8.14;100.00;93051.63;5114340;28;20063;-81
2024/03/21 01:44:26;;;;;;;30.42;18.42;;;;;;;8.09;100.00;93054.22;5115033;28;20488;-81
2024/03/21 01:46:52;;;;;;;32.42;18.23;;;;;;;8.09;100.00;93058.66;5114089;28;20040;-80
2024/03/21 01:49:17;;;;;;;36.25;19.30;;;;;;;8.05;100.00;93047.94;5113282;28;20040;-81
2024/03/21 01:51:45;;;;;;;35.03;20.02;;;;;;;8.04;100.00;93048.22;5113577;28;20038;-81
2024/03/21 01:54:12;;;;;;;30.55;18.05;;;;;;;8.01;100.00;93041.66;5114224;28;20035;-82
2024/03/21 01:56:38;;;;;;;32.35;18.45;;;;;;;8.03;100.00;93047.41;5112265;28;20042;-82
2024/03/21 01:59:04;;;;;;;31.52;17.95;;;;;;;8.00;100.00;93040.13;5113926;28;20403;-82
2024/03/21 02:01:31;;;;;;;30.25;17.92;;;;;;;7.98;100.00;93031.75;5114364;28;20040;-82
2024/03/21 02:04:00;;;;;;;30.75;18.60;;;;;;;7.98;100.00;93033.59;5114289;28;20035;-81
2024/03/21 02:06:28;;;;;;;30.30;18.15;;;;;;;7.97;100.00;93037.22;5114331;28;20059;-82
2024/03/21 02:08:54;;;;;;;30.80;17.63;;;;;;;7.93;100.00;93039.59;5114634;28;20100;-81
2024/03/21 02:11:22;;;;;;;29.70;19.08;;;;;;;7.89;100.00;93030.69;5113974;28;20385;-81
2024/03/21 02:13:49;;;;;;;35.20;19.42;;;;;;;7.85;100.00;93032.25;5114859;28;20035;-81
2024/03/21 02:16:15;;;;;;;30.10;18.73;;;;;;;7.80;100.00;93027.03;5112687;28;20088;-81
2024/03/21 02:18:41;;;;;;;33.05;18.52;;;;;;;7.74;100.00;93017.59;5112882;28;20047;-81
2024/03/21 02:22:35;;;;;;;34.10;19.67;;;;;;;7.69;100.00;93013.94;5112953;28;20034;-82
2024/03/21 02:23:52;;;;;;;32.75;17.85;;;;;;;7.65;100.00;93020.69;5114159;28;20388;-81
2024/03/21 02:26:18;;;;;;;32.53;18.02;;;;;;;7.58;100.00;93009.72;5099866;28;20055;-80
2024/03/21 02:28:44;;;;;;;31.80;18.95;;;;;;;7.54;100.00;93013.88;5093969;28;20028;-81
2024/03/21 02:31:10;;;;;;;30.38;18.25;;;;;;;7.50;100.00;93018.03;5095160;28;20051;-81
2024/03/21 02:33:35;;;;;;;30.35;17.63;;;;;;;7.45;100.00;93010.19;5093758;28;20040;-81
2024/03/21 02:36:01;;;;;;;28.98;17.25;;;;;;;7.43;100.00;93007.84;5075045;28;20024;-81
2024/03/21 02:38:26;;;;;;;28.50;15.82;;;;;;;7.40;100.00;93012.78;5094437;28;20040;-82
2024/03/21 02:40:52;;;;;;;26.05;15.63;;;;;;;7.36;100.00;93022.13;5093530;28;20039;-81
2024/03/21 02:43:17;;;;;;;26.98;14.98;;;;;;;7.30;100.00;93003.88;5093248;28;20568;-82
2024/03/21 02:45:43;;;;;;;24.77;14.30;;;;;;;7.29;100.00;93004.13;5076033;28;20421;-82
2024/03/21 02:48:09;;;;;;;27.10;15.68;;;;;;;7.26;100.00;93008.00;5075476;28;20048;-82
2024/03/21 02:50:35;;;;;;;25.02;14.80;;;;;;;7.26;100.00;93009.84;5093309;28;20039;-82
2024/03/21 02:53:02;;;;;;;27.08;15.73;;;;;;;7.21;100.00;93008.00;5093428;28;20032;-81
2024/03/21 02:55:27;;;;;;;27.83;15.77;;;;;;;7.18;100.00;92998.09;5094059;28;20489;-81
2024/03/21 02:57:53;;;;;;;26.48;16.00;;;;;;;7.16;100.00;93002.75;5093432;28;20024;-81
2024/03/21 03:00:18;;;;;;;28.15;15.75;;;;;;;7.13;100.00;93002.47;5075228;28;20412;-81
2024/03/21 03:02:45;;;;;;;26.55;15.73;;;;;;;7.12;100.00;93000.91;5075697;28;20090;-81
2024/03/21 03:05:12;;;;;;;27.65;16.13;;;;;;;7.10;100.00;92995.94;5093862;28;20135;-81
2024/03/21 03:07:38;;;;;;;30.98;17.33;;;;;;;7.08;100.00;92996.19;5093377;28;20083;-81
2024/03/21 03:10:04;;;;;;;29.17;16.65;;;;;;;7.06;100.00;93000.09;5094464;28;20040;-80
2024/03/21 03:12:31;;;;;;;28.30;16.70;;;;;;;7.01;100.00;93003.44;5093712;28;20032;-80
2024/03/21 03:14:56;;;;;;;30.40;18.17;;;;;;;6.96;100.00;92998.22;5092597;28;20043;-82
2024/03/21 03:17:22;;;;;;;33.63;18.27;;;;;;;6.96;100.00;92994.81;5093703;28;20040;-82
2024/03/21 03:19:48;;;;;;;35.53;18.10;;;;;;;6.96;100.00;92997.41;5059779;28;20052;-81
2024/03/21 03:22:13;;;;;;;28.33;16.10;;;;;;;6.93;100.00;93003.91;5074879;28;20051;-81
2024/03/21 03:24:39;;;;;;;32.78;17.42;;;;;;;6.90;100.00;92996.59;5095910;28;20047;-82
2024/03/21 03:27:04;;;;;;;34.80;17.05;;;;;;;6.91;100.00;92999.97;5096592;28;20056;-82
2024/03/21 03:29:30;;;;;;;31.98;17.02;;;;;;;6.90;100.00;92993.22;5062246;28;20036;-82
2024/03/21 03:32:01;;;;;;;30.23;17.15;;;;;;;6.86;100.00;92977.31;5096894;28;20481;-81
2024/03/21 03:37:11;;;;;;;30.63;18.30;;;;;;;6.81;100.00;92980.66;5095507;28;20122;-82
2024/03/21 03:39:37;;;;;;;34.03;18.63;;;;;;;6.79;100.00;92977.53;5094495;28;20070;-81
2024/03/21 03:42:03;;;;;;;32.65;18.83;;;;;;;6.77;100.00;92987.41;5075737;28;20040;-79
2024/03/21 03:44:29;;;;;;;35.15;18.23;;;;;;;6.75;100.00;92981.66;5076073;28;20124;-81
2024/03/21 03:46:54;;;;;;;37.67;18.50;;;;;;;6.75;100.00;92980.88;5057828;28;20493;-81
2024/03/21 03:49:20;;;;;;;35.90;19.23;;;;;;;6.73;100.00;92981.13;5076683;28;20044;-81
2024/03/21 03:51:45;;;;;;;31.67;17.80;;;;;;;6.71;100.00;92980.63;5059070;28;20041;-81
2024/03/21 03:54:11;;;;;;;33.40;17.98;;;;;;;6.68;100.00;92981.09;5077649;28;20047;-81
2024/03/21 03:56:37;;;;;;;32.42;19.25;;;;;;;6.67;100.00;92980.31;5078699;28;20033;-81
2024/03/21 03:59:03;;;;;;;35.83;19.50;;;;;;;6.66;100.00;92977.97;5059953;28;20045;-81
2024/03/21 04:01:28;;;;;;;33.22;19.10;;;;;;;6.64;100.00;92961.81;5076247;28;20085;-80
2024/03/21 04:03:54;;;;;;;31.73;16.73;;;;;;;6.63;100.00;92968.84;5058261;28;20131;-80
2024/03/21 04:06:20;;;;;;;30.52;17.33;;;;;;;6.59;100.00;92967.75;5076949;28;20476;-80
2024/03/21 04:08:46;;;;;;;32.63;18.08;;;;;;;6.60;100.00;92979.75;5058357;28;20036;-79
2024/03/21 04:11:16;;;;;;;32.15;17.77;;;;;;;6.62;100.00;92974.28;5075439;28;20068;-80
2024/03/21 04:13:42;;;;;;;35.92;18.85;;;;;;;6.60;100.00;92979.75;5076221;28;20090;-80
2024/03/21 04:16:13;;;;;;;34.08;18.67;;;;;;;6.57;100.00;92982.06;5075480;28;20420;-81
2024/03/21 04:18:39;;;;;;;33.47;17.80;;;;;;;6.55;100.00;92977.13;5074753;28;20028;-81
2024/03/21 04:21:04;;;;;;;34.72;17.25;;;;;;;6.55;100.00;92984.91;5056933;28;20037;-80
2024/03/21 04:23:30;;;;;;;33.95;17.30;;;;;;;6.52;100.00;92980.19;5057022;28;20436;-81
2024/03/21 04:25:55;;;;;;;31.52;17.52;;;;;;;6.52;100.00;92988.00;5073873;28;20052;-81
2024/03/21 04:28:21;;;;;;;29.55;16.75;;;;;;;6.50;100.00;92987.47;5074557;28;20051;-80
2024/03/21 04:30:47;;;;;;;31.58;17.30;;;;;;;6.46;100.00;92984.59;5073968;28;20032;-81
2024/03/21 04:33:13;;;;;;;32.88;18.15;;;;;;;6.42;100.00;92980.91;5056356;28;20066;-81
2024/03/21 04:35:39;;;;;;;34.08;17.35;;;;;;;6.44;100.00;92981.44;5073672;28;20340;-81
2024/03/21 04:38:07;;;;;;;32.85;18.05;;;;;;;6.44;100.00;92984.06;5055801;28;20048;-81
2024/03/21 04:40:33;;;;;;;31.75;18.60;;;;;;;6.42;100.00;92978.31;5073970;28;20074;-81
2024/03/21 04:42:59;;;;;;;33.47;18.13;;;;;;;6.46;100.00;92986.38;5073951;28;20028;-81
2024/03/21 04:45:24;;;;;;;33.33;17.92;;;;;;;6.44;100.00;92978.84;5073676;28;20406;-81
2024/03/21 04:47:51;;;;;;;33.40;18.65;;;;;;;6.45;100.00;92984.81;5073774;28;20043;-81
2024/03/21 04:50:20;;;;;;;34.65;18.63;;;;;;;6.46;100.00;92987.19;5073987;28;20076;-79
2024/03/21 04:52:46;;;;;;;36.45;18.67;;;;;;;6.50;100.00;92989.28;5073484;28;20032;-81
2024/03/21 04:55:12;;;;;;;35.03;18.73;;;;;;;6.47;100.00;92983.53;5055864;28;20028;-80
2024/03/21 04:57:38;;;;;;;34.78;18.73;;;;;;;6.45;100.00;92977.81;5074087;28;20048;-81
2024/03/21 05:00:05;;;;;;;35.88;18.90;;;;;;;6.48;100.00;92973.91;5073907;28;20115;-80
2024/03/21 05:02:32;;;;;;;38.67;19.10;;;;;;;6.47;100.00;92975.75;5040059;28;20527;-80
2024/03/21 05:04:57;;;;;;;37.10;19.15;;;;;;;6.47;100.00;92974.97;5093907;28;20040;-82
2024/03/21 05:07:23;;;;;;;36.53;18.67;;;;;;;6.47;100.00;92985.38;5094011;28;20681;-82
2024/03/21 05:09:48;;;;;;;36.63;18.10;;;;;;;6.44;100.00;92991.06;5093509;28;20036;-82
2024/03/21 05:12:16;;;;;;;33.45;17.95;;;;;;;6.40;100.00;92984.78;5075005;28;20032;-80
2024/03/21 05:14:42;;;;;;;27.70;17.73;;;;;;;6.39;100.00;92994.38;5059326;28;20110;-81
2024/03/21 05:17:09;;;;;;;29.88;17.58;;;;;;;6.35;100.00;92987.34;5093938;28;20028;-82
2024/03/21 05:19:36;;;;;;;33.88;18.00;;;;;;;6.38;100.00;92995.44;5075731;28;20118;-82
2024/03/21 05:22:01;;;;;;;33.30;17.63;;;;;;;6.38;100.00;92992.84;5093917;28;20036;-81
2024/03/21 05:24:27;;;;;;;31.88;17.33;;;;;;;6.36;100.00;92989.69;5093022;28;20542;-86
2024/03/21 05:26:53;;;;;;;31.42;17.55;;;;;;;6.36;100.00;92987.09;5041509;28;20045;-80
2024/03/21 05:29:19;;;;;;;28.95;16.98;;;;;;;6.36;100.00;92991.53;5044535;28;20037;-83
2024/03/21 05:31:45;;;;;;;31.25;16.85;;;;;;;6.30;100.00;92985.47;5053900;28;20072;-84
2024/03/21 05:34:10;;;;;;;31.15;17.02;;;;;;;6.35;100.00;92992.53;5040516;28;20088;-83
2024/03/21 05:36:36;;;;;;;29.50;17.33;;;;;;;6.36;100.00;92989.69;5039249;28;20029;-81
2024/03/21 05:39:03;;;;;;;30.65;17.15;;;;;;;6.40;100.00;92993.38;5048855;28;20033;-79
2024/03/21 05:41:30;;;;;;;28.83;15.98;;;;;;;6.41;100.00;92992.31;5043932;28;20037;-80
2024/03/21 05:43:56;;;;;;;31.67;16.70;;;;;;;6.46;100.00;92992.41;5047170;28;20029;-80
2024/03/21 05:46:29;;;;;;;37.58;18.10;;;;;;;6.51;100.00;92990.84;5039377;28;20033;-80
2024/03/21 05:48:55;;;;;;;35.33;18.23;;;;;;;6.63;100.00;92994.06;5048348;28;20081;-79
2024/03/21 05:51:21;;;;;;;34.70;18.98;;;;;;;6.79;100.00;92998.34;5056957;28;20047;-79
2024/03/21 05:53:47;;;;;;;32.53;17.95;;;;;;;7.11;100.00;92983.72;5051715;28;20048;-79
2024/03/21 05:56:15;;;;;;;32.00;17.92;;;;;;;7.47;100.00;92987.28;5042324;28;20041;-80
2024/03/21 05:58:41;;;;;;;34.20;17.42;;;;;;;7.60;100.00;92989.41;5044945;28;20045;-79
2024/03/21 06:03:35;;;;;;;37.03;18.45;;;;;;;8.09;100.00;92989.03;5041524;28;20044;-79
2024/03/21 06:06:01;;;;;;;33.53;18.70;;;;;;;8.20;100.00;93004.72;5045899;28;20033;-79
2024/03/21 06:08:27;;;;;;;34.70;18.90;;;;;;;8.42;100.00;93007.91;5040352;28;20080;-79
2024/03/21 06:10:53;;;;;;;35.47;17.70;;;;;;;8.66;100.00;93008.16;5023260;28;20046;-79
2024/03/21 06:13:20;;;;;;;34.42;18.05;;;;;;;8.80;100.00;93002.41;5037668;28;20044;-80
2024/03/21 06:15:45;;;;;;;30.95;17.45;;;;;;;8.81;100.00;92999.56;5043587;28;20033;-79
2024/03/21 06:18:11;;;;;;;31.52;16.95;;;;;;;9.18;100.00;93001.06;5043264;28;20040;-79
2024/03/21 06:20:38;;;;;;;33.67;18.48;;;;;;;9.28;100.00;92993.22;5052726;28;20108;-81
2024/03/21 06:23:04;;;;;;;28.98;16.38;;;;;;;9.51;100.00;92996.28;5052228;28;20087;-81
2024/03/21 06:25:30;;;;;;;24.58;15.40;;;;;;;10.06;100.00;92999.72;5061570;28;20054;-80
2024/03/21 06:27:55;;;;;;;27.52;15.60;;;;;;;10.50;100.00;93006.81;5087758;28;20028;-80
2024/03/21 06:30:21;;;;;;;25.63;16.10;;;;;;;10.87;100.00;93004.72;5071304;28;20051;-79
2024/03/21 06:32:47;;;;;;;29.88;15.85;;;;;;;11.07;100.00;93014.22;5074743;28;20051;-79
2024/03/21 06:35:14;;;;;;;27.38;15.93;;;;;;;11.48;100.00;93003.34;5087724;28;20099;-80
2024/03/21 06:37:39;;;;;;;26.98;15.25;;;;;;;11.67;100.00;93001.56;5084278;28;20043;-79
2024/03/21 06:40:08;;;;;;;27.92;16.05;;;;;;;11.34;100.00;93003.22;5083559;28;20405;-80
2024/03/21 06:42:33;;;;;;;24.60;15.38;;;;;;;11.13;100.00;93007.91;5089399;28;20042;-80
2024/03/21 06:45:00;;;;;;;27.67;15.93;;;;;;;10.94;100.00;93005.16;5094596;28;20040;-80
2024/03/21 06:47:26;;;;;;;25.95;15.30;;;;;;;11.22;100.00;93011.47;5093572;28;20036;-80
2024/03/21 06:49:53;;;;;;;25.52;14.98;;;;;;;12.01;100.00;93011.19;5093369;28;20385;-80
2024/03/21 06:52:20;;;;;;;25.17;15.80;;;;;;;12.70;100.00;92999.19;5084455;28;20493;-80
2024/03/21 06:54:45;;;;;;;24.58;15.25;;;;;;;13.04;100.00;92992.88;5084181;28;20382;-80
2024/03/21 06:57:11;;;;;;;23.13;13.48;;;;;;;13.89;100.00;92990.84;5064227;28;20044;-78
2024/03/21 06:59:37;;;;;;;24.45;14.45;;;;;;;14.53;100.00;92995.31;5074896;28;20051;-78
2024/03/21 07:02:05;;;;;;;24.50;14.30;;;;;;;15.11;100.00;92997.13;5094026;28;20074;-78
2024/03/21 07:04:31;;;;;;;22.48;13.93;;;;;;;15.75;100.00;92996.84;5094150;28;20035;-78
2024/03/21 07:06:56;;;;;;;19.25;12.30;;;;;;;16.31;97.47;92997.16;5081392;28;20032;-78
2024/03/21 07:09:23;;;;;;;21.13;12.38;;;;;;;16.75;91.99;92987.38;5070077;28;20043;-78
2024/03/21 07:11:49;;;;;;;20.58;12.55;;;;;;;17.38;84.35;92992.28;5087359;28;20074;-79
2024/03/21 07:14:15;;;;;;;19.65;13.25;;;;;;;18.12;78.89;92991.06;5062203;28;20040;-78
2024/03/21 07:16:41;;;;;;;17.73;11.70;;;;;;;18.71;78.01;92995.50;5089604;28;20100;-80
2024/03/21 07:19:06;;;;;;;21.75;12.40;;;;;;;19.16;75.02;92997.50;5091768;28;20079;-79
2024/03/21 07:21:32;;;;;;;19.40;12.23;;;;;;;19.52;69.97;93006.66;5093795;28;20028;-81
2024/03/21 07:23:58;;;;;;;18.50;13.20;;;;;;;18.98;70.15;93007.50;5094157;28;20066;-80
2024/03/21 07:26:23;;;;;;;17.77;10.57;;;;;;;19.32;67.85;92998.44;5095111;28;20052;-81
2024/03/21 07:28:49;;;;;;;16.02;10.95;;;;;;;18.70;70.05;93000.03;5087690;28;20130;-81
2024/03/21 07:31:14;;;;;;;14.73;10.73;;;;;;;17.87;72.95;93006.00;5083945;28;20041;-83
2024/03/21 07:33:40;;;;;;;16.45;11.32;;;;;;;16.79;77.96;93009.47;5074784;28;20050;-82
2024/03/21 07:36:05;;;;;;;22.08;11.25;;;;;;;16.30;80.62;93016.72;5093335;28;20029;-82
2024/03/21 07:38:32;;;;;;;15.02;9.60;;;;;;;15.56;86.86;93018.16;5087708;28;20436;-82
2024/03/21 07:41:02;;;;;;;18.67;10.40;;;;;;;15.02;89.34;93011.31;5065670;28;20033;-86
2024/03/21 07:43:27;;;;;;;17.70;11.75;;;;;;;14.27;93.17;93024.03;5093200;28;20048;-82
2024/03/21 07:45:53;;;;;;;20.33;11.63;;;;;;;13.94;100.00;93022.31;5096194;28;20548;-83
2024/03/21 07:48:19;;;;;;;16.25;10.15;;;;;;;13.88;100.00;93026.13;5087379;28;20028;-81
2024/03/21 07:50:45;;;;;;;18.33;12.05;;;;;;;13.78;100.00;93028.97;5088222;28;20563;-82
2024/03/21 07:53:11;;;;;;;21.95;11.55;;;;;;;13.83;100.00;93033.34;5088130;28;20059;-81
2024/03/21 07:55:37;;;;;;;19.20;11.18;;;;;;;14.02;100.00;93030.59;5096907;28;20032;-82
2024/03/21 07:58:05;;;;;;;19.30;12.63;;;;;;;13.79;100.00;93025.25;5089112;28;20119;-81
2024/03/21 08:00:31;;;;;;;18.65;11.85;;;;;;;13.66;100.00;93036.53;5097626;28;20046;-82
2024/03/21 08:02:56;;;;;;;16.27;9.77;;;;;;;13.03;100.00;93040.47;5096139;28;20107;-82
2024/03/21 08:05:23;;;;;;;13.77;8.20;;;;;;;12.96;100.00;93040.81;5090512;28;20050;-81
2024/03/21 08:07:49;;;;;;;19.38;11.82;;;;;;;12.99;100.00;93029.75;5095852;28;20086;-80
2024/03/21 08:10:15;;;;;;;20.05;11.20;;;;;;;13.26;100.00;93033.50;5092379;28;20024;-82
2024/03/21 08:12:41;;;;;;;19.98;12.00;;;;;;;13.27;100.00;93035.84;5098711;28;20475;-83
2024/03/21 08:15:08;;;;;;;18.85;12.00;;;;;;;13.58;100.00;93024.03;5097756;28;20058;-82
2024/03/21 08:17:33;;;;;;;21.40;12.45;;;;;;;13.81;100.00;93020.47;5093136;28;20023;-81
2024/03/21 08:20:00;;;;;;;17.33;11.20;;;;;;;14.09;100.00;93017.81;5081369;28;20036;-81
2024/03/21 08:22:26;;;;;;;20.23;12.50;;;;;;;14.22;100.00;93017.00;5073873;28;20085;-81
2024/03/21 08:24:51;;;;;;;15.23;9.55;;;;;;;14.27;100.00;93010.88;5077780;28;20055;-81
2024/03/21 08:27:19;;;;;;;17.80;11.60;;;;;;;14.05;100.00;93020.28;5091105;28;20055;-81
2024/03/21 08:29:49;;;;;;;17.92;11.40;;;;;;;13.99;100.00;93012.78;5097398;28;20032;-81
2024/03/21 08:32:17;;;;;;;19.25;11.15;;;;;;;13.94;100.00;93017.06;5097097;28;20374;-81
2024/03/21 08:34:44;;;;;;;15.02;10.30;;;;;;;14.20;100.00;93013.91;5095751;28;20035;-81
2024/03/21 08:37:15;;;;;;;19.55;11.60;;;;;;;14.07;100.00;93023.38;5095179;28;20039;-80
2024/03/21 08:39:41;;;;;;;20.48;12.18;;;;;;;14.02;100.00;93027.97;5084618;28;20051;-80
2024/03/21 08:42:07;;;;;;;17.45;11.23;;;;;;;14.16;100.00;93023.44;5071158;28;20427;-81
2024/03/21 08:44:33;;;;;;;17.83;10.95;;;;;;;14.16;100.00;93015.56;5094795;28;20032;-80
2024/03/21 08:46:59;;;;;;;16.10;9.65;;;;;;;14.41;100.00;93021.38;5094752;28;20036;-80
2024/03/21 08:49:24;;;;;;;18.40;11.35;;;;;;;14.63;100.00;93021.44;5094514;28;20034;-81
2024/03/21 08:51:50;;;;;;;15.27;10.32;;;;;;;14.76;97.71;93025.88;5093867;28;20044;-81
2024/03/21 08:54:16;;;;;;;15.57;9.65;;;;;;;14.51;97.66;93018.53;5094224;28;20394;-81
2024/03/21 08:56:41;;;;;;;20.27;11.25;;;;;;;14.58;100.00;93018.91;5086973;28;20032;-80
2024/03/21 08:59:07;;;;;;;18.45;10.93;;;;;;;14.71;98.68;93023.38;5076672;28;20044;-80
2024/03/21 09:01:32;;;;;;;10.88;6.35;;;;;;;14.76;96.29;93023.25;5094492;28;20035;-80
2024/03/21 09:03:58;;;;;;;10.15;6.50;;;;;;;14.57;96.73;93025.28;5075781;28;20035;-80
2024/03/21 09:06:23;;;;;;;11.18;6.72;;;;;;;14.30;100.00;93024.22;5094142;28;20044;-80
2024/03/21 09:08:49;;;;;;;12.75;8.38;;;;;;;14.13;99.18;93024.81;5094767;28;20044;-80
2024/03/21 09:11:14;;;;;;;18.17;11.25;;;;;;;14.08;97.88;93021.53;5093848;28;20024;-81
2024/03/21 09:13:40;;;;;;;17.73;10.43;;;;;;;14.27;100.00;93016.91;5087537;28;20453;-81
2024/03/21 09:16:07;;;;;;;17.13;10.98;;;;;;;14.37;99.26;93010.66;5094258;28;20032;-80
2024/03/21 09:18:33;;;;;;;18.58;9.27;;;;;;;14.57;98.88;93012.88;5075981;28;20098;-80
2024/03/21 09:21:02;;;;;;;16.50;10.13;;;;;;;14.85;92.68;93017.28;5093959;28;20495;-81
2024/03/21 09:23:28;;;;;;;13.52;9.10;;;;;;;15.18;89.91;93017.81;5094292;28;20043;-80
2024/03/21 09:26:01;;;;;;;14.25;9.93;;;;;;;14.96;92.90;93018.59;5067081;28;20081;-81
2024/03/21 09:28:27;;;;;;;17.92;10.63;;;;;;;14.66;92.44;93015.59;5094224;28;20044;-81
2024/03/21 09:30:53;;;;;;;19.67;10.52;;;;;;;14.69;93.78;93014.97;5086253;28;20046;-81
2024/03/21 09:33:18;;;;;;;17.23;9.55;;;;;;;15.03;93.65;93012.91;5076221;28;20054;-81
2024/03/21 09:35:44;;;;;;;16.65;9.63;;;;;;;14.67;94.98;93017.13;5093860;28;20077;-81
2024/03/21 09:38:10;;;;;;;15.30;10.52;;;;;;;14.82;92.91;93007.34;5094124;28;20047;-80
2024/03/21 09:40:36;;;;;;;17.67;10.80;;;;;;;15.16;90.20;93006.78;5091662;28;20032;-81
2024/03/21 09:43:05;;;;;;;16.83;9.85;;;;;;;15.51;89.45;93009.59;5094598;28;20130;-81
2024/03/21 09:45:33;;;;;;;13.63;7.78;;;;;;;15.67;89.18;93005.50;5093748;28;20090;-81
2024/03/21 09:47:59;;;;;;;15.77;9.63;;;;;;;15.36;86.91;92997.59;5093239;28;20027;-81
2024/03/21 09:50:25;;;;;;;15.73;10.00;;;;;;;15.26;88.50;92988.06;5075999;28;20036;-81
2024/03/21 09:52:51;;;;;;;18.20;10.40;;;;;;;15.69;91.41;92981.41;5094390;28;20070;-80
2024/03/21 09:55:18;;;;;;;16.02;10.50;;;;;;;16.18;86.43;92982.19;5093883;28;20040;-80
2024/03/21 09:57:44;;;;;;;16.25;10.30;;;;;;;16.37;87.72;92990.63;5094358;28;20103;-81
2024/03/21 10:00:12;;;;;;;14.80;9.25;;;;;;;15.91;84.49;92988.50;5094555;28;20468;-80
2024/03/21 10:02:38;;;;;;;16.85;10.45;;;;;;;15.43;90.32;92986.59;5092338;28;20373;-80
2024/03/21 10:05:06;;;;;;;14.70;10.25;;;;;;;15.48;89.33;92987.25;5087520;28;20036;-81
2024/03/21 10:07:35;;;;;;;16.77;8.55;;;;;;;15.61;89.97;92983.72;5094357;28;20043;-81
2024/03/21 10:10:02;;;;;;;13.85;9.18;;;;;;;15.41;89.80;92986.91;5094065;28;20035;-82
2024/03/21 10:12:27;;;;;;;16.08;10.15;;;;;;;15.44;90.75;92986.28;5076415;28;20486;-81
2024/03/21 10:14:56;;;;;;;13.40;8.63;;;;;;;15.90;87.95;92981.69;5075859;28;20096;-81
2024/03/21 10:17:26;;;;;;;16.90;10.43;;;;;;;15.75;86.05;92986.28;5094042;28;20550;-82
2024/03/21 10:19:52;;;;;;;12.05;8.02;;;;;;;15.88;85.51;92979.34;5090465;28;20074;-81
2024/03/21 10:22:22;;;;;;;13.93;8.38;;;;;;;15.91;86.54;92984.00;5089667;28;20048;-81
2024/03/21 10:24:55;;;;;;;10.80;7.30;;;;;;;15.94;83.11;92977.31;5094526;28;20028;-81
2024/03/21 10:27:22;;;;;;;14.52;8.70;;;;;;;15.89;86.97;92969.56;5075892;28;20425;-81
2024/03/21 10:29:49;;;;;;;15.45;8.18;;;;;;;16.26;84.83;92983.28;5094731;28;20028;-81
2024/03/21 10:32:22;;;;;;;15.68;9.38;;;;;;;16.43;82.06;92978.03;5094664;28;20040;-81
2024/03/21 10:34:52;;;;;;;14.23;8.55;;;;;;;16.67;82.29;92969.66;5098672;28;20520;-81
2024/03/21 10:37:21;;;;;;;14.20;8.70;;;;;;;16.89;82.95;92968.75;5092019;28;20037;-81
2024/03/21 10:39:48;;;;;;;11.23;7.55;;;;;;;16.57;82.31;92972.59;5077623;28;20031;-81
2024/03/21 10:42:22;;;;;;;15.32;9.65;;;;;;;16.58;81.49;92963.59;5080935;28;20051;-81
2024/03/21 10:44:51;;;;;;;13.30;8.23;;;;;;;16.72;80.40;92963.44;5098361;28;20546;-81
2024/03/21 10:47:17;;;;;;;10.65;6.30;;;;;;;16.54;80.56;92973.22;5079993;28;20028;-81
2024/03/21 10:49:43;;;;;;;15.98;8.98;;;;;;;16.64;83.37;92967.63;5098298;28;20119;-81
2024/03/21 10:52:14;;;;;;;12.13;7.93;;;;;;;16.50;84.97;92967.00;5098460;28;20028;-81
2024/03/21 10:54:41;;;;;;;18.45;10.20;;;;;;;16.52;88.47;92965.59;5090600;28;20040;-81
2024/03/21 10:57:19;;;;;;;9.45;6.15;;;;;;;16.82;80.70;92963.91;5097920;28;20073;-80
2024/03/21 11:00:13;;;;;;;13.07;9.10;;;;;;;16.85;78.83;92973.09;5096186;28;20560;-81
2024/03/21 11:02:40;;;;;;;13.95;8.77;;;;;;;16.71;80.52;92965.31;5095820;28;20036;-81
2024/03/21 11:05:13;;;;;;;12.45;8.10;;;;;;;16.30;83.27;92963.91;5095855;28;20082;-81
2024/03/21 11:07:45;;;;;;;11.35;7.07;;;;;;;15.98;85.26;92962.44;5095008;28;20032;-82
2024/03/21 11:10:17;;;;;;;10.80;7.15;;;;;;;15.72;85.40;92970.28;5096242;28;20424;-81
2024/03/21 11:12:44;;;;;;;14.55;9.07;;;;;;;15.58;86.59;92965.88;5087968;28;20180;-81
2024/03/21 11:15:10;;;;;;;12.10;7.43;;;;;;;16.12;82.77;92973.66;5096420;28;20404;-81
2024/03/21 11:17:35;;;;;;;15.07;9.02;;;;;;;16.08;86.31;92970.06;5096002;28;20036;-78
2024/03/21 11:20:05;;;;;;;12.73;7.78;;;;;;;16.16;81.92;92971.16;5077177;28;20060;-80